createdAt,value
2022-11-02T00:00:24.193Z,101213.94
2022-11-02T00:02:51.799Z,101214.47
2022-11-02T00:05:23.779Z,101220.97
2022-11-02T00:07:52.091Z,101213.94
2022-11-02T00:10:19.866Z,101211.56
2022-11-02T00:12:47.914Z,101208.13
2022-11-02T00:15:15.761Z,101210.91
2022-11-02T00:17:50.041Z,101212.81
2022-11-02T00:20:18.589Z,101209.72
2022-11-02T00:22:47.933Z,101207.97
2022-11-02T00:25:17.198Z,101206.75
2022-11-02T00:27:44.816Z,101211.06
2022-11-02T00:30:12.672Z,101206.59
2022-11-02T00:32:40.206Z,101211.66
2022-11-02T00:35:10.287Z,101211.31
2022-11-02T00:37:38.007Z,101207.00
2022-11-02T00:40:06.472Z,101201.84
2022-11-02T00:42:33.998Z,101203.56
2022-11-02T00:45:01.502Z,101203.88
2022-11-02T00:47:29.021Z,101198.81
2022-11-02T00:49:56.606Z,101201.66
2022-11-02T00:52:26.096Z,101204.78
2022-11-02T00:54:53.661Z,101200.38
2022-11-02T00:57:21.300Z,101202.28
2022-11-02T00:59:48.840Z,101205.25
2022-11-02T01:02:16.737Z,101201.22
2022-11-02T01:04:44.384Z,101190.31
2022-11-02T01:07:13.494Z,101203.94
2022-11-02T01:09:42.366Z,101203.81
2022-11-02T01:12:09.887Z,101203.69
2022-11-02T01:14:37.615Z,101202.16
2022-11-02T01:17:05.714Z,101198.03
2022-11-02T01:19:33.243Z,101205.84
2022-11-02T01:22:00.809Z,101205.09
2022-11-02T01:24:28.284Z,101199.00
2022-11-02T01:26:57.201Z,101199.88
2022-11-02T01:29:24.734Z,101199.66
2022-11-02T01:31:53.592Z,101192.41
2022-11-02T01:34:21.520Z,101193.19
2022-11-02T01:36:49.151Z,101194.16
2022-11-02T01:39:16.809Z,101191.28
2022-11-02T01:41:44.291Z,101199.28
2022-11-02T01:44:30.208Z,101187.78
2022-11-02T01:47:00.809Z,101189.63
2022-11-02T01:49:28.690Z,101182.34
2022-11-02T01:51:59.301Z,101187.16
2022-11-02T01:54:31.106Z,101185.84
2022-11-02T01:57:02.618Z,101194.63
2022-11-02T01:59:34.562Z,101180.81
2022-11-02T02:02:02.731Z,101175.75
2022-11-02T02:04:30.480Z,101175.38
2022-11-02T02:06:59.408Z,101176.31
2022-11-02T02:09:27.805Z,101173.91
2022-11-02T02:11:55.301Z,101178.69
2022-11-02T02:14:22.829Z,101174.03
2022-11-02T02:17:00.451Z,101173.91
2022-11-02T02:19:39.578Z,101170.38
2022-11-02T02:22:21.176Z,101167.94
2022-11-02T02:24:59.163Z,101165.25
2022-11-02T02:27:31.457Z,101157.06
2022-11-02T02:30:05.671Z,101153.31
2022-11-02T02:32:39.784Z,101154.78
2022-11-02T02:35:14.307Z,101153.03
2022-11-02T02:37:47.678Z,101138.06
2022-11-02T02:40:18.131Z,101135.56
2022-11-02T02:42:48.090Z,101148.13
2022-11-02T02:45:20.341Z,101146.81
2022-11-02T02:47:50.865Z,101152.63
2022-11-02T02:50:20.858Z,101147.06
2022-11-02T02:52:51.052Z,101143.00
2022-11-02T02:55:20.201Z,101143.81
2022-11-02T02:57:48.221Z,101139.75
2022-11-02T03:00:18.567Z,101138.75
2022-11-02T03:03:00.658Z,101136.03
2022-11-02T03:05:30.660Z,101132.91
2022-11-02T03:08:02.886Z,101139.31
2022-11-02T03:10:34.414Z,101151.19
2022-11-02T03:13:11.162Z,101144.72
2022-11-02T03:15:42.774Z,101152.13
2022-11-02T03:18:17.445Z,101154.47
2022-11-02T03:20:55.241Z,101154.16
2022-11-02T03:23:27.556Z,101142.28
2022-11-02T03:26:00.837Z,101140.38
2022-11-02T03:28:41.359Z,101141.94
2022-11-02T03:31:13.691Z,101141.13
2022-11-02T03:33:46.116Z,101146.16
2022-11-02T03:36:15.755Z,101139.59
2022-11-02T03:38:45.847Z,101141.53
2022-11-02T03:41:14.244Z,101144.88
2022-11-02T03:43:42.491Z,101148.41
2022-11-02T03:46:12.258Z,101163.16
2022-11-02T03:48:43.067Z,101164.16
2022-11-02T03:51:13.767Z,101165.56
2022-11-02T03:53:45.769Z,101155.97
2022-11-02T03:56:16.680Z,101163.47
2022-11-02T03:58:44.261Z,101169.94
2022-11-02T04:01:13.844Z,101181.94
2022-11-02T04:03:45.586Z,101175.63
2022-11-02T04:06:13.510Z,101181.34
2022-11-02T04:08:43.849Z,101176.56
2022-11-02T04:11:29.617Z,101187.50
2022-11-02T04:14:14.949Z,101189.81
2022-11-02T04:16:44.204Z,101197.94
2022-11-02T04:19:29.695Z,101195.47
2022-11-02T04:22:15.550Z,101197.78
2022-11-02T04:25:00.621Z,101200.34
2022-11-02T04:27:29.473Z,101205.69
2022-11-02T04:29:57.060Z,101207.00
2022-11-02T04:32:43.371Z,101199.72
2022-11-02T04:35:11.110Z,101203.66
2022-11-02T04:37:59.762Z,101205.66
2022-11-02T04:40:27.496Z,101207.25
2022-11-02T04:42:55.223Z,101210.53
2022-11-02T04:45:22.765Z,101204.22
2022-11-02T04:47:51.712Z,101206.25
2022-11-02T04:50:19.233Z,101209.91
2022-11-02T04:52:46.758Z,101201.94
2022-11-02T04:55:14.241Z,101207.97
2022-11-02T04:57:45.741Z,101200.03
2022-11-02T05:00:15.439Z,101211.09
2022-11-02T05:02:44.114Z,101216.72
2022-11-02T05:05:13.059Z,101231.41
2022-11-02T05:07:40.729Z,101228.44
2022-11-02T05:10:08.810Z,101227.16
2022-11-02T05:12:36.409Z,101229.97
2022-11-02T05:15:04.804Z,101225.38
2022-11-02T05:17:32.409Z,101229.44
2022-11-02T05:19:59.920Z,101226.63
2022-11-02T05:22:28.801Z,101222.41
2022-11-02T05:24:56.332Z,101225.31
2022-11-02T05:27:23.800Z,101228.66
2022-11-02T05:29:51.352Z,101240.81
2022-11-02T05:32:18.879Z,101241.66
2022-11-02T05:34:46.405Z,101241.06
2022-11-02T05:37:13.936Z,101241.97
2022-11-02T05:39:45.113Z,101258.13
2022-11-02T05:42:15.380Z,101253.56
2022-11-02T05:44:42.922Z,101260.94
2022-11-02T05:47:10.420Z,101262.44
2022-11-02T05:49:37.920Z,101262.38
2022-11-02T05:52:05.818Z,101250.00
2022-11-02T05:54:33.358Z,101247.50
2022-11-02T05:57:02.267Z,101263.13
2022-11-02T05:59:29.778Z,101261.22
2022-11-02T06:01:57.372Z,101264.34
2022-11-02T06:04:25.033Z,101273.34
2022-11-02T06:06:52.583Z,101269.56
2022-11-02T06:09:20.092Z,101269.47
2022-11-02T06:11:47.600Z,101273.34
2022-11-02T06:14:16.460Z,101272.69
2022-11-02T06:16:43.960Z,101272.06
2022-11-02T06:19:11.509Z,101281.69
2022-11-02T06:21:41.052Z,101273.88
2022-11-02T06:24:10.705Z,101289.09
2022-11-02T06:26:38.228Z,101286.53
2022-11-02T06:29:05.916Z,101306.59
2022-11-02T06:31:34.754Z,101313.88
2022-11-02T06:34:02.318Z,101309.56
2022-11-02T06:36:29.801Z,101306.06
2022-11-02T06:38:57.355Z,101300.59
2022-11-02T06:41:24.830Z,101308.84
2022-11-02T06:43:52.476Z,101317.94
2022-11-02T06:46:19.999Z,101319.81
2022-11-02T06:48:49.550Z,101323.72
2022-11-02T06:51:17.140Z,101316.47
2022-11-02T06:53:44.646Z,101327.50
2022-11-02T06:56:12.932Z,101329.41
2022-11-02T06:58:40.496Z,101327.47
2022-11-02T07:01:09.396Z,101334.91
2022-11-02T07:03:37.178Z,101336.03
2022-11-02T07:06:11.079Z,101342.78
2022-11-02T07:08:40.360Z,101340.69
2022-11-02T07:11:07.864Z,101346.28
2022-11-02T07:13:35.349Z,101362.47
2022-11-02T07:16:02.896Z,101361.22
2022-11-02T07:18:30.374Z,101366.81
2022-11-02T07:20:59.779Z,101372.78
2022-11-02T07:23:28.693Z,101382.00
2022-11-02T07:25:56.183Z,101382.94
2022-11-02T07:28:23.684Z,101384.50
2022-11-02T07:30:54.971Z,101387.00
2022-11-02T07:33:22.495Z,101388.00
2022-11-02T07:35:49.970Z,101386.34
2022-11-02T07:38:17.487Z,101387.59
2022-11-02T07:40:49.714Z,101396.69
2022-11-02T07:43:20.171Z,101388.13
2022-11-02T07:45:47.757Z,101393.59
2022-11-02T07:48:15.408Z,101388.69
2022-11-02T07:50:42.989Z,101392.69
2022-11-02T07:53:10.832Z,101388.06
2022-11-02T07:55:38.388Z,101391.34
2022-11-02T07:58:10.963Z,101392.63
2022-11-02T08:00:40.915Z,101395.75
2022-11-02T08:03:10.821Z,101398.09
2022-11-02T08:05:40.553Z,101400.94
2022-11-02T08:08:09.895Z,101408.91
2022-11-02T08:10:40.356Z,101405.66
2022-11-02T08:13:10.052Z,101403.06
2022-11-02T08:15:37.647Z,101410.03
2022-11-02T08:18:07.574Z,101415.94
2022-11-02T08:20:36.539Z,101422.44
2022-11-02T08:23:04.829Z,101416.53
2022-11-02T08:25:32.753Z,101418.38
2022-11-02T08:28:01.375Z,101423.88
2022-11-02T08:30:31.541Z,101432.59
2022-11-02T08:33:03.672Z,101431.03
2022-11-02T08:35:31.211Z,101429.63
2022-11-02T08:37:59.905Z,101430.78
2022-11-02T08:40:27.803Z,101435.34
2022-11-02T08:42:58.630Z,101435.13
2022-11-02T08:45:26.302Z,101435.47
2022-11-02T08:47:55.539Z,101440.16
2022-11-02T08:50:23.651Z,101435.50
2022-11-02T08:52:51.214Z,101424.69
2022-11-02T08:55:19.241Z,101431.53
2022-11-02T08:57:47.470Z,101423.88
2022-11-02T09:00:15.721Z,101420.22
2022-11-02T09:02:43.976Z,101419.56
2022-11-02T09:05:13.039Z,101419.41
2022-11-02T09:07:40.522Z,101418.22
2022-11-02T09:10:09.484Z,101413.72
2022-11-02T09:12:36.966Z,101423.84
2022-11-02T09:15:05.106Z,101426.78
2022-11-02T09:17:32.624Z,101430.97
2022-11-02T09:20:00.122Z,101429.88
2022-11-02T09:22:28.989Z,101429.84
2022-11-02T09:24:56.496Z,101429.63
2022-11-02T09:27:24.139Z,101419.22
2022-11-02T09:29:51.666Z,101424.34
2022-11-02T09:32:19.137Z,101425.13
2022-11-02T09:34:47.354Z,101434.03
2022-11-02T09:37:14.902Z,101423.00
2022-11-02T09:39:43.810Z,101428.16
2022-11-02T09:42:14.802Z,101426.31
2022-11-02T09:44:48.554Z,101422.19
2022-11-02T09:50:04.999Z,101425.25
2022-11-02T09:52:35.605Z,101429.69
2022-11-02T09:55:06.347Z,101428.75
2022-11-02T09:57:34.628Z,101426.53
2022-11-02T10:00:02.419Z,101435.59
2022-11-02T10:02:42.575Z,101435.75
2022-11-02T10:05:19.776Z,101435.03
2022-11-02T10:08:01.722Z,101434.63
2022-11-02T10:10:35.759Z,101448.78
2022-11-02T10:13:12.475Z,101450.63
2022-11-02T10:15:42.604Z,101454.94
2022-11-02T10:18:15.154Z,101451.56
2022-11-02T10:20:46.245Z,101456.28
2022-11-02T10:23:22.358Z,101462.41
2022-11-02T10:25:51.462Z,101467.38
2022-11-02T10:28:21.502Z,101471.09
2022-11-02T10:30:49.097Z,101474.75
2022-11-02T10:33:19.333Z,101465.38
2022-11-02T10:36:16.406Z,101471.72
2022-11-02T10:38:46.081Z,101464.28
2022-11-02T10:41:28.160Z,101472.69
2022-11-02T10:44:09.969Z,101470.00
2022-11-02T10:46:49.400Z,101475.34
2022-11-02T10:49:23.991Z,101458.63
2022-11-02T10:51:51.536Z,101463.13
2022-11-02T10:54:23.995Z,101468.41
2022-11-02T10:56:59.739Z,101464.03
2022-11-02T10:59:27.328Z,101467.69
2022-11-02T11:02:06.958Z,101469.69
2022-11-02T11:04:35.511Z,101464.28
2022-11-02T11:07:07.082Z,101451.81
2022-11-02T11:09:46.447Z,101456.78
2022-11-02T11:12:22.169Z,101461.31
2022-11-02T11:20:34.177Z,101455.41
2022-11-02T11:23:19.533Z,101453.66
2022-11-02T11:25:58.818Z,101455.44
2022-11-02T11:28:30.315Z,101443.81
2022-11-02T11:31:06.946Z,101440.09
2022-11-02T11:33:35.155Z,101443.44
2022-11-02T11:36:02.724Z,101439.47
2022-11-02T11:38:30.200Z,101446.94
2022-11-02T11:40:59.063Z,101442.41
2022-11-02T11:43:29.505Z,101449.03
2022-11-02T11:46:04.788Z,101445.47
2022-11-02T11:48:37.505Z,101437.94
2022-11-02T11:51:06.157Z,101442.34
2022-11-02T11:53:35.406Z,101444.44
2022-11-02T11:56:02.948Z,101439.31
2022-11-02T11:58:32.679Z,101424.75
2022-11-02T12:01:10.414Z,101424.38
2022-11-02T12:03:51.582Z,101428.22
2022-11-02T12:06:25.488Z,101425.81
2022-11-02T12:09:01.581Z,101430.53
2022-11-02T12:11:40.457Z,101426.91
2022-11-02T12:14:17.097Z,101421.03
2022-11-02T12:16:56.454Z,101417.78
2022-11-02T12:19:34.196Z,101416.34
2022-11-02T12:22:06.692Z,101416.44
2022-11-02T12:24:44.422Z,101408.59
2022-11-02T12:27:20.747Z,101410.50
2022-11-02T12:30:15.358Z,101415.41
2022-11-02T12:32:53.865Z,101415.94
2022-11-02T12:35:30.088Z,101415.97
2022-11-02T12:38:14.856Z,101421.84
2022-11-02T12:40:52.705Z,101426.06
2022-11-02T12:43:33.987Z,101421.41
2022-11-02T12:46:05.376Z,101417.91
2022-11-02T12:48:50.922Z,101423.84
2022-11-02T12:51:21.003Z,101414.44
2022-11-02T12:53:50.499Z,101407.94
2022-11-02T12:56:21.766Z,101400.28
2022-11-02T12:58:49.506Z,101398.63
2022-11-02T13:01:23.255Z,101392.34
2022-11-02T13:03:54.224Z,101400.41
2022-11-02T13:06:25.464Z,101403.53
2022-11-02T13:08:55.831Z,101412.53
2022-11-02T13:11:26.572Z,101412.81
2022-11-02T13:13:56.747Z,101415.81
2022-11-02T13:16:34.023Z,101406.78
2022-11-02T13:19:02.617Z,101413.03
2022-11-02T13:21:35.727Z,101407.56
2022-11-02T13:24:07.492Z,101398.47
2022-11-02T13:26:37.825Z,101407.84
2022-11-02T13:29:08.738Z,101405.22
2022-11-02T13:31:40.380Z,101384.63
2022-11-02T13:34:12.715Z,101381.03
2022-11-02T13:36:40.748Z,101386.72
2022-11-02T13:39:11.350Z,101384.31
2022-11-02T13:42:07.370Z,101372.06
2022-11-02T13:44:58.687Z,101373.91
2022-11-02T13:47:42.371Z,101379.28
2022-11-02T13:50:13.135Z,101382.59
2022-11-02T13:52:43.079Z,101378.19
2022-11-02T13:55:18.798Z,101374.88
2022-11-02T13:57:48.795Z,101382.66
2022-11-02T14:00:30.450Z,101375.25
2022-11-02T14:03:03.414Z,101379.16
2022-11-02T14:05:33.111Z,101375.00
2022-11-02T14:08:01.802Z,101372.13
2022-11-02T14:10:29.935Z,101369.91
2022-11-02T14:12:57.539Z,101383.22
2022-11-02T14:15:57.769Z,101378.06
2022-11-02T14:18:33.338Z,101375.94
2022-11-02T14:21:41.755Z,101384.72
2022-11-02T14:24:48.176Z,101389.53
2022-11-02T14:27:29.332Z,101383.03
2022-11-02T14:29:57.215Z,101375.63
2022-11-02T14:32:40.940Z,101381.63
2022-11-02T14:35:42.950Z,101376.03
2022-11-02T14:38:40.964Z,101378.88
2022-11-02T14:41:19.571Z,101378.38
2022-11-02T14:43:59.516Z,101376.22
2022-11-02T14:46:39.799Z,101380.84
2022-11-02T14:49:17.239Z,101375.22
2022-11-02T14:51:47.407Z,101372.72
2022-11-02T14:54:17.543Z,101371.53
2022-11-02T14:56:51.480Z,101378.56
2022-11-02T14:59:21.019Z,101367.84
2022-11-02T15:01:52.922Z,101380.06
2022-11-02T15:04:20.465Z,101372.94
2022-11-02T15:06:54.956Z,101368.69
2022-11-02T15:09:54.133Z,101377.94
2022-11-02T15:12:37.266Z,101384.53
2022-11-02T15:15:32.558Z,101374.75
2022-11-02T15:18:14.807Z,101371.16
2022-11-02T15:20:46.219Z,101355.19
2022-11-02T15:23:29.942Z,101361.06
2022-11-02T15:25:59.808Z,101360.78
2022-11-02T15:28:30.293Z,101373.25
2022-11-02T15:31:00.469Z,101369.84
2022-11-02T15:33:35.931Z,101374.81
2022-11-02T15:36:05.630Z,101369.28
2022-11-02T15:38:39.616Z,101370.00
2022-11-02T15:41:18.117Z,101366.31
2022-11-02T15:44:38.580Z,101372.22
2022-11-02T15:47:13.802Z,101363.28
2022-11-02T15:49:57.743Z,101357.34
2022-11-02T15:52:46.428Z,101362.53
2022-11-02T15:55:32.872Z,101365.84
2022-11-02T15:58:06.790Z,101357.22
2022-11-02T16:00:34.608Z,101356.28
2022-11-02T16:03:03.910Z,101351.91
2022-11-02T16:05:33.575Z,101350.50
2022-11-02T16:08:17.414Z,101357.22
2022-11-02T16:10:48.910Z,101347.53
2022-11-02T16:13:17.987Z,101353.47
2022-11-02T16:15:46.285Z,101352.78
2022-11-02T16:18:27.463Z,101334.06
2022-11-02T16:20:56.548Z,101338.44
2022-11-02T16:23:25.911Z,101339.59
2022-11-02T16:25:56.181Z,101336.53
2022-11-02T16:28:25.375Z,101333.75
2022-11-02T16:31:00.722Z,101341.03
2022-11-02T16:33:31.868Z,101334.41
2022-11-02T16:36:00.108Z,101343.47
2022-11-02T16:38:28.507Z,101340.53
2022-11-02T16:40:57.487Z,101339.34
2022-11-02T16:43:26.043Z,101342.50
2022-11-02T16:46:00.601Z,101340.53
2022-11-02T16:48:29.648Z,101346.06
2022-11-02T16:51:13.441Z,101341.09
2022-11-02T16:53:42.528Z,101340.63
2022-11-02T16:56:35.627Z,101348.28
2022-11-02T16:59:05.610Z,101341.63
2022-11-02T17:01:38.729Z,101345.59
2022-11-02T17:04:17.326Z,101351.28
2022-11-02T17:06:45.418Z,101345.47
2022-11-02T17:09:22.612Z,101340.47
2022-11-02T17:11:52.349Z,101337.31
2022-11-02T17:14:20.759Z,101330.47
2022-11-02T17:17:04.203Z,101326.91
2022-11-02T17:19:54.832Z,101325.50
2022-11-02T17:22:26.729Z,101334.47
2022-11-02T17:25:05.952Z,101336.78
2022-11-02T17:27:39.258Z,101337.38
2022-11-02T17:30:43.688Z,101339.59
2022-11-02T17:33:22.262Z,101344.13
2022-11-02T17:35:51.176Z,101342.13
2022-11-02T17:38:19.646Z,101340.31
2022-11-02T17:40:51.988Z,101341.53
2022-11-02T17:43:20.502Z,101349.09
2022-11-02T17:45:54.928Z,101347.41
2022-11-02T17:48:22.423Z,101340.06
2022-11-02T17:50:53.720Z,101342.41
2022-11-02T17:53:21.378Z,101339.53
2022-11-02T17:55:48.899Z,101335.53
2022-11-02T17:58:16.942Z,101342.56
2022-11-02T18:00:45.825Z,101344.13
2022-11-02T18:03:16.734Z,101346.84
2022-11-02T18:05:48.333Z,101342.09
2022-11-02T18:08:17.950Z,101342.13
2022-11-02T18:10:46.861Z,101338.78
2022-11-02T18:13:16.065Z,101330.38
2022-11-02T18:15:43.969Z,101326.59
2022-11-02T18:18:12.840Z,101337.66
2022-11-02T18:20:41.990Z,101328.59
2022-11-02T18:23:15.420Z,101326.00
2022-11-02T18:25:43.066Z,101328.44
2022-11-02T18:28:10.584Z,101318.34
2022-11-02T18:30:38.116Z,101328.06
2022-11-02T18:33:08.383Z,101332.19
2022-11-02T18:35:42.084Z,101333.44
2022-11-02T18:38:09.621Z,101330.50
2022-11-02T18:40:37.154Z,101327.97
2022-11-02T18:43:05.208Z,101324.88
2022-11-02T18:45:33.124Z,101327.03
2022-11-02T18:48:00.695Z,101325.50
2022-11-02T18:50:28.306Z,101325.88
2022-11-02T18:52:57.236Z,101321.09
2022-11-02T18:55:24.895Z,101321.06
2022-11-02T18:57:52.681Z,101320.19
2022-11-02T19:00:20.805Z,101320.47
2022-11-02T19:02:48.534Z,101318.53
2022-11-02T19:05:33.874Z,101320.59
2022-11-02T19:08:21.310Z,101321.03
2022-11-02T19:10:51.878Z,101318.41
2022-11-02T19:13:20.716Z,101323.41
2022-11-02T19:15:48.428Z,101321.50
2022-11-02T19:18:16.097Z,101303.09
2022-11-02T19:20:45.041Z,101297.75
2022-11-02T19:23:14.681Z,101299.16
2022-11-02T19:25:56.789Z,101311.50
2022-11-02T19:28:24.606Z,101299.50
2022-11-02T19:30:52.405Z,101302.75
2022-11-02T19:33:20.236Z,101300.19
2022-11-02T19:35:55.562Z,101286.53
2022-11-02T19:38:28.389Z,101293.06
2022-11-02T19:41:02.528Z,101292.44
2022-11-02T19:43:32.948Z,101295.50
2022-11-02T19:46:04.470Z,101280.31
2022-11-02T19:48:35.426Z,101281.63
2022-11-02T19:51:07.857Z,101273.75
2022-11-02T19:53:37.628Z,101281.06
2022-11-02T19:56:06.370Z,101273.13
2022-11-02T19:58:34.149Z,101279.34
2022-11-02T20:01:06.620Z,101292.72
2022-11-02T20:03:37.598Z,101282.34
2022-11-02T20:06:07.174Z,101283.44
2022-11-02T20:08:36.547Z,101286.06
2022-11-02T20:11:05.800Z,101282.44
2022-11-02T20:13:34.916Z,101281.25
2022-11-02T20:16:02.658Z,101277.38
2022-11-02T20:18:30.597Z,101284.56
2022-11-02T20:21:03.781Z,101276.41
2022-11-02T20:23:31.455Z,101282.06
2022-11-02T20:26:05.151Z,101284.00
2022-11-02T20:28:37.600Z,101281.28
2022-11-02T20:31:08.134Z,101292.16
2022-11-02T20:33:39.040Z,101286.03
2022-11-02T20:36:08.009Z,101289.63
2022-11-02T20:38:37.763Z,101284.69
2022-11-02T20:41:09.811Z,101279.28
2022-11-02T20:43:37.977Z,101280.38
2022-11-02T20:46:36.077Z,101281.81
2022-11-02T20:49:13.926Z,101271.38
2022-11-02T20:51:51.213Z,101272.38
2022-11-02T20:54:19.628Z,101272.47
2022-11-02T20:56:49.493Z,101270.44
2022-11-02T20:59:17.267Z,101272.38
2022-11-02T21:01:45.220Z,101267.66
2022-11-02T21:04:19.807Z,101274.34
2022-11-02T21:06:54.527Z,101261.25
2022-11-02T21:09:29.703Z,101267.41
2022-11-02T21:12:16.161Z,101264.47
2022-11-02T21:14:43.759Z,101260.28
2022-11-02T21:17:27.538Z,101257.66
2022-11-02T21:20:28.545Z,101248.59
2022-11-02T21:22:51.188Z,101255.56
2022-11-02T21:25:21.208Z,101247.66
2022-11-02T21:27:51.938Z,101253.47
2022-11-02T21:30:21.470Z,101255.00
2022-11-02T21:32:53.046Z,101244.28
2022-11-02T21:35:21.430Z,101244.97
2022-11-02T21:37:49.122Z,101242.91
2022-11-02T21:40:17.425Z,101244.72
2022-11-02T21:42:45.141Z,101240.41
2022-11-02T21:45:18.562Z,101227.03
2022-11-02T21:47:46.417Z,101242.34
2022-11-02T21:50:14.263Z,101241.78
2022-11-02T21:52:45.051Z,101241.34
2022-11-02T21:55:14.191Z,101234.53
2022-11-02T21:57:42.264Z,101231.88
2022-11-02T22:00:11.149Z,101231.09
2022-11-02T22:02:39.516Z,101213.25
2022-11-02T22:05:30.665Z,101214.25
2022-11-02T22:08:15.824Z,101214.41
2022-11-02T22:10:45.577Z,101228.03
2022-11-02T22:13:27.108Z,101227.91
2022-11-02T22:15:54.873Z,101219.84
2022-11-02T22:18:23.926Z,101221.75
2022-11-02T22:20:56.884Z,101220.66
2022-11-02T22:23:28.779Z,101214.66
2022-11-02T22:26:04.496Z,101216.19
2022-11-02T22:28:34.192Z,101205.03
2022-11-02T22:31:06.089Z,101206.56
2022-11-02T22:33:35.263Z,101209.50
2022-11-02T22:36:05.182Z,101199.19
2022-11-02T22:38:50.408Z,101200.00
2022-11-02T22:41:19.417Z,101198.16
2022-11-02T22:43:47.924Z,101200.53
2022-11-02T22:46:17.631Z,101188.88
2022-11-02T22:48:46.684Z,101190.03
2022-11-02T22:51:14.636Z,101185.84
2022-11-02T22:53:46.347Z,101165.63
2022-11-02T22:56:21.703Z,101167.19
2022-11-02T22:58:50.523Z,101167.75
2022-11-02T23:01:23.731Z,101158.16
2022-11-02T23:03:56.468Z,101160.69
2022-11-02T23:06:25.030Z,101155.38
2022-11-02T23:08:57.587Z,101152.16
2022-11-02T23:11:27.582Z,101158.69
2022-11-02T23:13:56.858Z,101161.84
2022-11-02T23:16:25.849Z,101158.88
2022-11-02T23:19:27.272Z,101152.50
2022-11-02T23:22:15.011Z,101150.25
2022-11-02T23:25:01.542Z,101157.88
2022-11-02T23:27:29.809Z,101162.34
2022-11-02T23:30:14.933Z,101157.56
2022-11-02T23:32:42.446Z,101159.72
2022-11-02T23:35:29.071Z,101155.25
2022-11-02T23:38:04.258Z,101150.50
2022-11-02T23:40:31.367Z,101144.66
2022-11-02T23:42:58.854Z,101145.66
2022-11-02T23:45:26.370Z,101166.13
2022-11-02T23:48:01.246Z,101161.94
2022-11-02T23:50:50.113Z,101154.16
2022-11-02T23:53:36.559Z,101155.53
2022-11-02T23:56:22.322Z,101148.00
2022-11-02T23:59:06.362Z,101152.22
